Terminal Aerodrome Forecast
Issued by NWS

Current Version | Previous Version | Graphics & Text | Print | Product List | Glossary On
Versions: 1 2 3 4 5 6 7 8 9 10 11 12 13 14 15 16 17 18 19 20 21 22 23 24 25 26 27 28 29 30 31
000
FTUS41 KILN 261524 AAB
TAFLUK
TAF AMD
KLUK 261524Z 2615/2712 25004KT P6SM BKN035
     FM262100 30005KT P6SM VCSH BKN040
      TEMPO 2622/2624 5SM -SHRA
     FM270100 00000KT P6SM BKN040
     FM271000 00000KT 4SM BR FEW040=

USA.gov is the U.S. government's official web portal to all federal, state and local government web resources and services.